createdAt,value
2019-03-29T00:00:02.459Z,65.9
2019-03-29T00:02:15.452Z,66.3
2019-03-29T00:03:21.956Z,66.5
2019-03-29T00:05:34.926Z,65.6
2019-03-29T00:06:41.423Z,66
2019-03-29T00:07:47.955Z,65.8
2019-03-29T00:13:20.413Z,66
2019-03-29T00:14:26.866Z,66
2019-03-29T00:15:33.363Z,66.5
2019-03-29T00:17:46.358Z,67.1
2019-03-29T00:18:52.087Z,66.5
2019-03-29T00:19:59.417Z,66.9
2019-03-29T00:21:05.876Z,67
2019-03-29T00:22:12.040Z,66.8
2019-03-29T00:23:18.850Z,66.8
2019-03-29T00:25:31.898Z,67.4
2019-03-29T00:26:38.388Z,67.5
2019-03-29T00:33:17.354Z,67.9
2019-03-29T00:34:23.877Z,67.9
2019-03-29T00:36:36.863Z,67.7
2019-03-29T00:38:49.823Z,67.8
2019-03-29T00:41:02.087Z,68
2019-03-29T00:42:09.296Z,68
2019-03-29T00:45:28.799Z,67.8
2019-03-29T00:48:48.327Z,68.5
2019-03-29T00:49:54.810Z,68.6
2019-03-29T00:52:07.078Z,68.6
2019-03-29T00:53:14.310Z,69
2019-03-29T00:55:27.283Z,68.5
2019-03-29T00:56:33.774Z,68.5
2019-03-29T00:59:53.298Z,69.1
2019-03-29T01:00:59.098Z,68.8
2019-03-29T01:04:19.238Z,68.8
2019-03-29T01:05:25.777Z,68.8
2019-03-29T01:07:38.752Z,69
2019-03-29T01:09:51.726Z,69.2
2019-03-29T01:12:04.742Z,68.8
2019-03-29T01:13:11.268Z,68.9
2019-03-29T01:15:24.022Z,69
2019-03-29T01:18:43.752Z,69.4
2019-03-29T01:19:50.022Z,69.2
2019-03-29T01:20:56.741Z,68.9
2019-03-29T01:23:09.715Z,69.6
2019-03-29T01:24:16.214Z,69.5
2019-03-29T01:27:35.718Z,69.5
2019-03-29T01:28:42.185Z,69.4
2019-03-29T01:29:48.692Z,69.4
2019-03-29T01:30:55.222Z,69.7
2019-03-29T01:32:01.667Z,68.9
2019-03-29T01:33:08.219Z,69.2
2019-03-29T01:35:21.207Z,69
2019-03-29T01:36:27.639Z,69
2019-03-29T01:38:40.698Z,69.1
2019-03-29T01:39:47.147Z,69.4
2019-03-29T01:40:53.665Z,69.2
2019-03-29T01:44:13.146Z,69.3
2019-03-29T01:46:26.142Z,69.2
2019-03-29T01:48:39.129Z,69.1
2019-03-29T01:56:24.578Z,69.6
2019-03-29T01:58:37.814Z,69.2
2019-03-29T01:59:44.093Z,69.4
2019-03-29T02:00:50.606Z,69.5
2019-03-29T02:01:57.112Z,69.6
2019-03-29T02:03:03.632Z,69.6
2019-03-29T02:04:10.009Z,69.7
2019-03-29T02:05:16.623Z,69.7
2019-03-29T02:06:23.078Z,69.8
2019-03-29T02:07:29.552Z,69.8
2019-03-29T02:10:49.063Z,69.5
2019-03-29T02:11:55.588Z,69.8
2019-03-29T02:14:08.558Z,69.9
2019-03-29T02:15:15.091Z,69.7
2019-03-29T02:17:28.092Z,69.7
2019-03-29T02:18:34.529Z,69.7
2019-03-29T02:21:54.006Z,69.8
2019-03-29T02:23:00.548Z,69.9
2019-03-29T02:28:32.991Z,69.9
2019-03-29T02:31:52.053Z,69.6
2019-03-29T02:35:12.012Z,70
2019-03-29T02:37:25.001Z,69.8
2019-03-29T02:38:31.460Z,69.9
2019-03-29T02:41:50.991Z,70.3
2019-03-29T02:44:03.984Z,70.4
2019-03-29T02:46:16.985Z,70.5
2019-03-29T02:48:29.956Z,70.6
2019-03-29T02:49:36.477Z,70.8
2019-03-29T02:50:42.093Z,71
2019-03-29T02:52:55.986Z,70.6
2019-03-29T02:54:02.532Z,70.7
2019-03-29T02:56:15.416Z,71.1
2019-03-29T02:57:21.946Z,71.2
2019-03-29T02:58:28.429Z,71.3
2019-03-29T03:00:41.432Z,71.4
2019-03-29T03:01:47.901Z,71.4
2019-03-29T03:02:54.451Z,71.6
2019-03-29T03:06:13.939Z,71.4
2019-03-29T03:08:26.939Z,71.4
2019-03-29T03:09:33.367Z,71.3
2019-03-29T03:11:46.398Z,71.3
2019-03-29T03:16:12.409Z,71.9
2019-03-29T03:17:18.861Z,72
2019-03-29T03:19:31.835Z,72
2019-03-29T03:20:38.367Z,71.9
2019-03-29T03:21:44.896Z,72
2019-03-29T03:23:57.872Z,71.9
2019-03-29T03:25:04.346Z,71.9
2019-03-29T03:27:17.036Z,71.9
2019-03-29T03:28:23.808Z,71.9
2019-03-29T03:29:30.326Z,71.9
2019-03-29T03:31:43.324Z,71.7
2019-03-29T03:32:49.844Z,71.6
2019-03-29T03:36:09.307Z,71.4
2019-03-29T03:37:15.830Z,71.6
2019-03-29T03:45:01.275Z,72
2019-03-29T03:47:14.270Z,72.2
2019-03-29T03:48:20.080Z,72.1
2019-03-29T03:49:27.024Z,72.1
2019-03-29T03:50:33.077Z,72.1
2019-03-29T03:52:46.798Z,72
2019-03-29T03:54:59.787Z,72.2
2019-03-29T03:56:06.233Z,72.3
2019-03-29T03:57:12.734Z,72.3
2019-03-29T03:58:19.235Z,72.3
2019-03-29T03:59:25.780Z,72.3
2019-03-29T04:00:32.240Z,72.5
2019-03-29T04:02:45.231Z,72.8
2019-03-29T04:03:51.755Z,72.8
2019-03-29T04:06:04.758Z,72.8
2019-03-29T04:07:11.228Z,72.9
2019-03-29T04:09:24.217Z,72.9
2019-03-29T04:10:30.747Z,73
2019-03-29T04:13:50.235Z,73.1
2019-03-29T04:14:56.660Z,73
2019-03-29T04:16:03.215Z,72.9
2019-03-29T04:18:16.207Z,72.9
2019-03-29T04:19:22.671Z,73
2019-03-29T04:21:35.664Z,73.1
2019-03-29T04:23:48.636Z,73.2
2019-03-29T04:26:01.622Z,73.5
2019-03-29T04:27:08.180Z,73.6
2019-03-29T04:29:21.144Z,73.8
2019-03-29T04:33:47.108Z,74
2019-03-29T04:34:53.644Z,73.8
2019-03-29T04:37:06.557Z,73.8
2019-03-29T04:38:13.060Z,74
2019-03-29T04:39:19.585Z,73.8
2019-03-29T04:40:26.053Z,73.8
2019-03-29T04:42:39.097Z,74
2019-03-29T04:43:45.551Z,74
2019-03-29T04:44:52.021Z,74.2
2019-03-29T04:45:58.547Z,74.3
2019-03-29T04:47:05.067Z,74.3
2019-03-29T04:49:18.044Z,74.2
2019-03-29T04:50:24.521Z,74.2
2019-03-29T04:52:37.498Z,74
2019-03-29T04:53:44.010Z,74.2
2019-03-29T04:54:50.472Z,74.3
2019-03-29T04:57:03.476Z,74.2
2019-03-29T04:58:09.984Z,74.2
2019-03-29T05:00:22.942Z,74
2019-03-29T05:02:35.984Z,74
2019-03-29T05:03:42.452Z,74
2019-03-29T05:04:48.915Z,74
2019-03-29T05:05:55.443Z,74
2019-03-29T05:07:01.901Z,74
2019-03-29T05:08:08.417Z,74
2019-03-29T05:10:21.428Z,74
2019-03-29T05:12:34.384Z,74.3
2019-03-29T05:13:40.892Z,74.4
2019-03-29T05:15:53.897Z,74.5
2019-03-29T05:17:00.370Z,74.3
2019-03-29T05:19:13.038Z,74.3
2019-03-29T05:20:19.847Z,74.5
2019-03-29T05:21:26.639Z,74.5
2019-03-29T05:23:39.371Z,74.3
2019-03-29T05:24:45.800Z,74.2
2019-03-29T05:26:58.797Z,74.2
2019-03-29T05:28:05.302Z,74
2019-03-29T05:31:24.823Z,74.2
2019-03-29T05:32:31.264Z,74.2
2019-03-29T05:34:44.247Z,74.2
2019-03-29T05:35:50.781Z,74.2
2019-03-29T05:38:03.764Z,74
2019-03-29T05:41:23.245Z,74.2
2019-03-29T05:43:36.208Z,74
2019-03-29T05:44:42.752Z,74
2019-03-29T05:46:55.073Z,74
2019-03-29T05:49:08.704Z,74.2
2019-03-29T05:51:21.689Z,74
2019-03-29T05:52:28.146Z,74.2
2019-03-29T05:54:41.234Z,74.2
2019-03-29T05:55:47.655Z,74.2
2019-03-29T05:56:54.167Z,74
2019-03-29T06:00:13.666Z,74.2
2019-03-29T06:03:33.110Z,74.2
2019-03-29T06:04:39.626Z,74.3
2019-03-29T06:05:46.147Z,74.3
2019-03-29T06:06:52.688Z,74.2
2019-03-29T06:07:59.134Z,74.2
2019-03-29T06:11:18.557Z,73.6
2019-03-29T06:13:31.581Z,74
2019-03-29T06:14:38.096Z,73.7
2019-03-29T06:15:44.564Z,73.8
2019-03-29T06:17:57.635Z,73.7
2019-03-29T06:20:10.502Z,73.7
2019-03-29T06:23:29.986Z,73.5
2019-03-29T06:25:43.032Z,73.5
2019-03-29T06:27:56.041Z,73.5
2019-03-29T06:31:15.497Z,73.4
2019-03-29T06:33:28.477Z,73.4
2019-03-29T06:34:34.974Z,73.2
2019-03-29T06:37:54.440Z,73
2019-03-29T06:41:13.931Z,73
2019-03-29T06:42:20.051Z,72.7
2019-03-29T06:43:26.944Z,72.7
2019-03-29T06:44:33.373Z,72.5
2019-03-29T06:45:39.874Z,72.4
2019-03-29T06:46:46.366Z,72.4
2019-03-29T06:50:05.877Z,72.3
2019-03-29T06:51:12.339Z,72.5
2019-03-29T06:52:18.823Z,72.3
2019-03-29T06:53:25.374Z,72.2
2019-03-29T06:54:31.840Z,72.2
2019-03-29T06:55:38.353Z,72
2019-03-29T06:56:44.852Z,72
2019-03-29T06:58:57.792Z,71.7
2019-03-29T07:01:10.083Z,71.7
2019-03-29T07:02:17.297Z,71.8
2019-03-29T07:04:30.299Z,71.3
2019-03-29T07:06:43.307Z,71.5
2019-03-29T07:08:56.272Z,71.5
2019-03-29T07:12:15.733Z,71.3
2019-03-29T07:13:22.250Z,71.5
2019-03-29T07:14:28.752Z,71.2
2019-03-29T07:16:41.730Z,70.9
2019-03-29T07:17:48.023Z,70.6
2019-03-29T07:20:01.239Z,70.6
2019-03-29T07:21:07.689Z,70.5
2019-03-29T07:22:14.209Z,70.5
2019-03-29T07:24:27.200Z,71.1
2019-03-29T07:25:33.696Z,71
2019-03-29T07:27:46.701Z,70
2019-03-29T07:28:53.139Z,69.7
2019-03-29T07:31:06.171Z,69.4
2019-03-29T07:35:32.121Z,69.8
2019-03-29T07:37:45.111Z,70.1
2019-03-29T07:39:58.142Z,70.1
2019-03-29T07:41:04.602Z,70.3
2019-03-29T07:42:10.000Z,70.2
2019-03-29T07:43:17.512Z,69.9
2019-03-29T07:46:37.095Z,69.2
2019-03-29T07:47:43.551Z,69.4
2019-03-29T07:48:50.051Z,69.5
2019-03-29T07:51:03.045Z,68.8
2019-03-29T07:52:09.538Z,69.1
2019-03-29T07:55:29.030Z,68
2019-03-29T07:59:55.026Z,67.9
2019-03-29T08:01:01.530Z,67.4
2019-03-29T08:03:14.532Z,67.1
2019-03-29T08:04:20.981Z,67.4
2019-03-29T08:06:34.002Z,68.2
2019-03-29T08:07:40.457Z,66.6
2019-03-29T08:13:12.930Z,66.9
2019-03-29T08:14:19.463Z,66.5
2019-03-29T08:18:45.397Z,64.9
2019-03-29T08:19:51.915Z,64.6
2019-03-29T08:22:04.882Z,64.5
2019-03-29T08:24:17.920Z,64.7
2019-03-29T08:25:24.420Z,64.7
2019-03-29T08:26:30.857Z,65.1
2019-03-29T08:27:37.378Z,64.9
2019-03-29T08:29:50.413Z,64.5
2019-03-29T08:30:56.857Z,64.4
2019-03-29T08:32:03.037Z,64.4
2019-03-29T08:37:35.868Z,62.9
2019-03-29T08:38:42.315Z,63.1
2019-03-29T08:39:48.854Z,63.5
2019-03-29T08:43:08.281Z,63.3
2019-03-29T08:45:21.029Z,62.1
2019-03-29T08:46:27.792Z,62.6
2019-03-29T08:47:34.282Z,62.8
2019-03-29T08:48:40.800Z,62.6
2019-03-29T08:49:47.288Z,62.5
2019-03-29T08:52:00.247Z,62.5
2019-03-29T08:53:06.773Z,62.3
2019-03-29T08:55:19.755Z,62.3
2019-03-29T08:57:32.775Z,62.6
2019-03-29T08:58:39.262Z,62.7
2019-03-29T09:00:52.019Z,61.3
2019-03-29T09:03:05.260Z,62.2
2019-03-29T09:05:18.190Z,62.2
2019-03-29T09:07:31.206Z,61.7
2019-03-29T09:08:37.665Z,61.7
2019-03-29T09:09:44.192Z,61
2019-03-29T09:10:50.683Z,61.5
2019-03-29T09:11:57.191Z,61
2019-03-29T09:14:10.154Z,60.6
2019-03-29T09:16:23.193Z,60.3
2019-03-29T09:17:29.628Z,59.4
2019-03-29T09:19:42.622Z,59.3
2019-03-29T09:20:49.158Z,59.7
2019-03-29T09:24:08.582Z,58
2019-03-29T09:25:15.145Z,58.3
2019-03-29T09:26:21.592Z,57.9
2019-03-29T09:28:34.579Z,57.2
2019-03-29T09:29:41.118Z,57
2019-03-29T09:31:54.106Z,56.3
2019-03-29T09:34:07.051Z,55
2019-03-29T09:36:20.036Z,54.5
2019-03-29T09:37:26.575Z,53.8
2019-03-29T09:39:39.572Z,53
2019-03-29T09:41:52.557Z,50.7
2019-03-29T09:44:05.527Z,49.5
2019-03-29T09:45:11.981Z,49.5
2019-03-29T09:48:31.499Z,48.5
2019-03-29T09:49:37.974Z,48
2019-03-29T09:50:44.495Z,47.8
2019-03-29T09:51:50.957Z,47.5
2019-03-29T09:52:57.465Z,48.1
2019-03-29T09:56:16.925Z,47.6
2019-03-29T09:57:23.412Z,46.8
2019-03-29T09:59:36.436Z,45.4
2019-03-29T10:00:42.912Z,45.1
2019-03-29T10:01:49.444Z,44.9
2019-03-29T10:02:55.938Z,43.8
2019-03-29T10:04:02.396Z,44.1
2019-03-29T10:08:28.408Z,41.9
2019-03-29T10:10:41.449Z,40.8
2019-03-29T10:12:54.437Z,38.1
2019-03-29T10:14:00.081Z,36.9
2019-03-29T10:15:07.328Z,36.5
2019-03-29T10:16:13.857Z,35.5
2019-03-29T10:18:26.798Z,35.9
2019-03-29T10:26:12.297Z,34.8
2019-03-29T10:27:18.823Z,36
2019-03-29T10:28:25.027Z,36.6
2019-03-29T10:31:44.779Z,35
2019-03-29T10:33:57.767Z,34.8
2019-03-29T10:35:04.285Z,34.2
2019-03-29T10:36:10.748Z,32.8
2019-03-29T10:38:23.700Z,30.7
2019-03-29T10:39:30.208Z,30.5
2019-03-29T10:42:49.737Z,30.5
2019-03-29T10:43:56.192Z,29.9
2019-03-29T10:46:09.232Z,29.4
2019-03-29T10:47:15.689Z,30.1
2019-03-29T10:49:28.660Z,30.5
2019-03-29T10:53:54.690Z,29.6
2019-03-29T10:55:01.131Z,29.6
2019-03-29T10:57:14.169Z,30.6
2019-03-29T10:59:27.160Z,29
2019-03-29T11:02:46.597Z,29.3
2019-03-29T11:06:06.084Z,28.8
2019-03-29T11:07:12.574Z,29.8
2019-03-29T11:08:19.104Z,30.3
2019-03-29T11:09:25.624Z,28.8
2019-03-29T11:10:32.070Z,28.5
2019-03-29T11:12:45.086Z,28.6
2019-03-29T11:13:51.639Z,30.3
2019-03-29T11:14:58.106Z,27.9
2019-03-29T11:17:11.012Z,27.5
2019-03-29T11:20:30.527Z,27.7
2019-03-29T11:21:37.006Z,28.5
2019-03-29T11:22:43.519Z,29.2
2019-03-29T11:24:56.493Z,28.4
2019-03-29T11:30:28.956Z,31.3
2019-03-29T11:32:41.994Z,30.2
2019-03-29T11:33:48.463Z,29.5
2019-03-29T11:36:01.424Z,31.4
2019-03-29T11:38:14.463Z,33
2019-03-29T11:40:27.458Z,32.8
2019-03-29T11:41:33.091Z,31.7
2019-03-29T11:43:46.940Z,30.4
2019-03-29T11:44:53.426Z,29.4
2019-03-29T11:45:59.897Z,29.8
2019-03-29T11:48:12.086Z,29.4
2019-03-29T11:49:19.388Z,29.6
2019-03-29T11:51:32.346Z,29.1
2019-03-29T11:52:38.872Z,28.7
2019-03-29T11:53:45.386Z,28.6
2019-03-29T11:55:58.350Z,29.2
2019-03-29T12:00:24.300Z,30.3
2019-03-29T12:01:30.799Z,30
2019-03-29T12:03:43.804Z,29.3
2019-03-29T12:07:03.326Z,29.3
2019-03-29T12:09:16.309Z,30.3
2019-03-29T12:12:35.739Z,29.7
2019-03-29T12:19:14.758Z,28.4
2019-03-29T12:23:40.858Z,27.9
2019-03-29T12:24:47.289Z,27
2019-03-29T12:28:06.661Z,27.1
2019-03-29T12:30:19.675Z,25.9
2019-03-29T12:31:26.201Z,26.4
2019-03-29T12:32:32.653Z,26
2019-03-29T12:34:45.643Z,26.6
2019-03-29T12:35:52.140Z,26.1
2019-03-29T12:38:05.153Z,25.4
2019-03-29T12:39:11.905Z,25.8
2019-03-29T12:40:18.128Z,25.1
2019-03-29T12:43:37.589Z,26.1
2019-03-29T12:51:23.100Z,27.1
2019-03-29T12:53:36.056Z,27.3
2019-03-29T12:55:49.026Z,26.7
2019-03-29T12:58:02.060Z,27.4
2019-03-29T13:01:21.585Z,26.8
2019-03-29T13:02:27.998Z,27.7
2019-03-29T13:03:34.526Z,28.9
2019-03-29T13:05:47.478Z,29.2
2019-03-29T13:06:53.960Z,29.9
2019-03-29T13:10:13.475Z,29.1
2019-03-29T13:17:58.920Z,29.1
2019-03-29T13:19:05.443Z,28.6
2019-03-29T13:21:18.447Z,29.5
2019-03-29T13:26:50.982Z,29.6
2019-03-29T13:30:10.360Z,30.7
2019-03-29T13:32:23.364Z,31.7
2019-03-29T13:34:36.037Z,31.7
2019-03-29T13:36:49.338Z,32.8
2019-03-29T13:37:55.865Z,32.6
2019-03-29T13:40:08.834Z,32.9
2019-03-29T13:41:15.302Z,32.6
2019-03-29T13:42:21.833Z,33.1
2019-03-29T13:44:34.771Z,32.9
2019-03-29T13:47:54.295Z,33.9
2019-03-29T13:49:00.760Z,35
2019-03-29T13:50:07.261Z,36.4
2019-03-29T13:53:26.746Z,35.2
2019-03-29T13:55:39.747Z,34.4
2019-03-29T13:56:46.226Z,35.2
2019-03-29T13:57:52.747Z,34.6
2019-03-29T14:00:05.717Z,34.9
2019-03-29T14:01:12.250Z,34.6
2019-03-29T14:04:31.701Z,36.3
2019-03-29T14:05:38.022Z,36.7
2019-03-29T14:07:51.163Z,36.4
2019-03-29T14:08:57.702Z,36
2019-03-29T14:11:10.686Z,36.8
2019-03-29T14:13:23.651Z,35.3
2019-03-29T14:16:43.185Z,36
2019-03-29T14:18:56.115Z,37.4
2019-03-29T14:20:02.662Z,35.6
2019-03-29T14:21:09.146Z,35.9
2019-03-29T14:23:22.105Z,35.3
2019-03-29T14:26:41.630Z,36.4
2019-03-29T14:27:48.096Z,37.7
2019-03-29T14:28:54.594Z,36.8
2019-03-29T14:31:07.597Z,37.1
2019-03-29T14:32:14.075Z,36.7
2019-03-29T14:34:27.122Z,36.3
2019-03-29T14:35:33.555Z,36.5
2019-03-29T14:36:40.092Z,35.9
2019-03-29T14:39:59.570Z,37.4
2019-03-29T14:42:12.599Z,37.4
2019-03-29T14:43:19.042Z,37.2
2019-03-29T14:44:25.557Z,36.8
2019-03-29T14:47:45.003Z,36.1
2019-03-29T14:49:58.054Z,37.4
2019-03-29T14:52:11.035Z,36.8
2019-03-29T14:54:23.978Z,37.3
2019-03-29T14:55:30.521Z,37.5
2019-03-29T14:57:43.523Z,38
2019-03-29T14:58:49.962Z,38.2
2019-03-29T14:59:56.047Z,38.2
2019-03-29T15:05:28.984Z,37.3
2019-03-29T15:06:35.463Z,37.3
2019-03-29T15:09:54.916Z,39.4
2019-03-29T15:11:01.458Z,38.2
2019-03-29T15:14:20.943Z,37.3
2019-03-29T15:15:27.420Z,37.3
2019-03-29T15:18:46.874Z,37.9
2019-03-29T15:20:59.867Z,38.7
2019-03-29T15:23:12.920Z,37.6
2019-03-29T15:26:32.425Z,38.2
2019-03-29T15:28:45.344Z,37.6
2019-03-29T15:36:30.798Z,38.6
2019-03-29T15:37:37.311Z,38.4
2019-03-29T15:38:43.787Z,38.7
2019-03-29T15:42:03.327Z,38.5
2019-03-29T15:45:22.806Z,40.6
2019-03-29T15:49:48.815Z,39.4
2019-03-29T15:52:01.779Z,39.1
2019-03-29T15:53:08.271Z,39.1
2019-03-29T15:54:14.793Z,39.4
2019-03-29T15:56:27.715Z,39.1
2019-03-29T15:57:34.516Z,39.2
2019-03-29T15:59:47.258Z,39.3
2019-03-29T16:02:00.270Z,39.4
2019-03-29T16:04:13.202Z,39.7
2019-03-29T16:05:19.680Z,39.6
2019-03-29T16:07:32.700Z,39.8
2019-03-29T16:09:45.721Z,39.6
2019-03-29T16:11:58.858Z,39.8
2019-03-29T16:13:05.196Z,39.9
2019-03-29T16:16:24.655Z,40.3
2019-03-29T16:17:31.189Z,40
2019-03-29T16:20:50.663Z,40.1
2019-03-29T16:23:03.642Z,40.2
2019-03-29T16:24:10.159Z,40.6
2019-03-29T16:30:49.106Z,40
2019-03-29T16:31:55.580Z,40.3
2019-03-29T16:35:15.081Z,41.1
2019-03-29T16:36:21.610Z,40.4
2019-03-29T16:38:34.055Z,40.5
2019-03-29T16:39:41.096Z,40.4
2019-03-29T16:40:47.542Z,40.5
2019-03-29T16:43:00.549Z,40.5
2019-03-29T16:48:33.030Z,41
2019-03-29T16:50:46.031Z,41.3
2019-03-29T16:51:52.493Z,40.9
2019-03-29T16:55:12.014Z,40.4
2019-03-29T16:56:18.046Z,40.7
2019-03-29T16:58:31.473Z,40.8
2019-03-29T17:02:57.481Z,41
2019-03-29T17:04:03.944Z,40.7
2019-03-29T17:06:16.000Z,41.1
2019-03-29T17:07:23.487Z,40.9
2019-03-29T17:10:42.912Z,41.1
2019-03-29T17:14:02.000Z,41.2
2019-03-29T17:17:21.949Z,41.5
2019-03-29T17:21:47.899Z,41.4
2019-03-29T17:22:54.418Z,41.5
2019-03-29T17:25:07.420Z,41.6
2019-03-29T17:29:33.400Z,41.8
2019-03-29T17:30:39.870Z,41.8
2019-03-29T17:32:52.871Z,41.9
2019-03-29T17:33:59.340Z,41.9
2019-03-29T17:35:05.879Z,42
2019-03-29T17:37:18.874Z,42
2019-03-29T17:38:25.321Z,42.2
2019-03-29T17:40:38.350Z,42.4
2019-03-29T17:41:44.835Z,42.5
2019-03-29T17:45:04.265Z,42.4
2019-03-29T17:46:10.080Z,42.5
2019-03-29T17:48:23.079Z,42.2
2019-03-29T17:49:30.255Z,42.2
2019-03-29T17:50:36.775Z,42.2
2019-03-29T17:52:49.793Z,42.1
2019-03-29T17:53:56.272Z,42.2
2019-03-29T17:56:09.249Z,41.9
2019-03-29T17:58:22.244Z,42
2019-03-29T18:01:41.701Z,41.9
2019-03-29T18:06:07.708Z,41.9
2019-03-29T18:08:20.073Z,42.2
2019-03-29T18:09:27.002Z,42.2
2019-03-29T18:12:46.718Z,43.2
2019-03-29T18:16:06.193Z,42.9
2019-03-29T18:17:12.653Z,43.1
2019-03-29T18:19:25.064Z,43.2
2019-03-29T18:20:32.150Z,42.8
2019-03-29T18:21:38.686Z,43
2019-03-29T18:23:51.620Z,43.2
2019-03-29T18:24:58.152Z,43.4
2019-03-29T18:27:11.168Z,43.4
2019-03-29T18:28:17.626Z,43.5
2019-03-29T18:31:37.091Z,43.6
2019-03-29T18:32:43.636Z,43.6
2019-03-29T18:34:56.619Z,43.5
2019-03-29T18:37:09.590Z,43.8
2019-03-29T18:44:55.119Z,44.1
2019-03-29T18:47:08.085Z,44.5
2019-03-29T18:48:14.055Z,44.2
2019-03-29T18:50:27.580Z,44.4
2019-03-29T18:51:34.071Z,44.2
2019-03-29T18:52:40.058Z,44.4
2019-03-29T18:54:53.537Z,45.3
2019-03-29T18:56:00.083Z,44.6
2019-03-29T18:59:19.053Z,44.6
2019-03-29T19:02:39.056Z,44.9
2019-03-29T19:05:58.541Z,45.3
2019-03-29T19:07:05.004Z,45.6
2019-03-29T19:08:11.515Z,45.6
2019-03-29T19:13:44.002Z,45
2019-03-29T19:15:56.954Z,45
2019-03-29T19:18:09.096Z,44.8
2019-03-29T19:19:16.500Z,45
2019-03-29T19:21:29.004Z,45.3
2019-03-29T19:27:01.960Z,45.4
2019-03-29T19:30:21.465Z,45
2019-03-29T19:31:27.904Z,45.3
2019-03-29T19:33:40.931Z,45.8
2019-03-29T19:34:47.442Z,45.9
2019-03-29T19:37:00.432Z,46.3
2019-03-29T19:38:06.944Z,46.6
2019-03-29T19:39:13.382Z,46.8
2019-03-29T19:41:26.402Z,45.5
2019-03-29T19:42:32.867Z,45.4
2019-03-29T19:44:45.870Z,45.5
2019-03-29T19:45:52.412Z,45.5
2019-03-29T19:49:11.871Z,45.8
2019-03-29T19:50:18.325Z,45.8
2019-03-29T19:52:31.349Z,45.9
2019-03-29T19:56:57.341Z,45.7
2019-03-29T20:00:16.804Z,46.1
2019-03-29T20:02:29.086Z,47.4
2019-03-29T20:05:49.348Z,46.3
2019-03-29T20:08:02.324Z,46.2
2019-03-29T20:09:08.800Z,46.2
2019-03-29T20:12:28.300Z,46.5
2019-03-29T20:15:47.798Z,46.5
2019-03-29T20:16:54.273Z,46.7
2019-03-29T20:18:00.745Z,46.7
2019-03-29T20:20:13.805Z,46.7
2019-03-29T20:21:20.263Z,46.8
2019-03-29T20:24:39.723Z,46.9
2019-03-29T20:25:46.239Z,46.9
2019-03-29T20:27:59.024Z,47
2019-03-29T20:31:18.743Z,47
2019-03-29T20:35:44.706Z,47.3
2019-03-29T20:36:51.184Z,47.4
2019-03-29T20:39:04.191Z,47.4
2019-03-29T20:41:17.021Z,47.3
2019-03-29T20:43:30.179Z,47.4
2019-03-29T20:44:36.697Z,48
2019-03-29T20:46:49.672Z,48.2
2019-03-29T20:47:56.157Z,48.1
2019-03-29T20:49:02.683Z,47.9
2019-03-29T20:51:15.698Z,48.5
2019-03-29T20:52:22.186Z,49.5
2019-03-29T20:55:41.667Z,48.9
2019-03-29T21:02:20.666Z,49.3
2019-03-29T21:03:27.147Z,50.1
2019-03-29T21:04:33.606Z,49.6
2019-03-29T21:07:53.080Z,50.5
2019-03-29T21:10:06.092Z,50.5
2019-03-29T21:12:19.112Z,50.3
2019-03-29T21:14:32.100Z,51
2019-03-29T21:15:38.664Z,51.1
2019-03-29T21:17:51.566Z,50.9
2019-03-29T21:20:04.574Z,51.1
2019-03-29T21:22:17.057Z,51.8
2019-03-29T21:25:37.119Z,52.1
2019-03-29T21:26:43.576Z,52.1
2019-03-29T21:30:03.076Z,52.1
2019-03-29T21:31:09.551Z,52.4
2019-03-29T21:33:22.539Z,52.7
2019-03-29T21:34:28.997Z,52.5
2019-03-29T21:37:48.557Z,53
2019-03-29T21:41:07.998Z,53.1
2019-03-29T21:42:14.476Z,53.4
2019-03-29T21:43:21.011Z,53.4
2019-03-29T21:45:34.004Z,53.7
2019-03-29T21:46:40.484Z,53.1
2019-03-29T21:48:53.521Z,53.1
2019-03-29T21:51:06.452Z,53.3
2019-03-29T21:53:19.466Z,53.7
2019-03-29T21:54:25.939Z,53.7
2019-03-29T21:56:38.963Z,54
2019-03-29T21:58:52.003Z,54.1
2019-03-29T22:01:04.947Z,53.8
2019-03-29T22:02:11.419Z,54
2019-03-29T22:04:24.474Z,54.4
2019-03-29T22:05:30.975Z,54.4
2019-03-29T22:08:50.406Z,54.3
2019-03-29T22:09:56.967Z,54.1
2019-03-29T22:12:09.088Z,54.6
2019-03-29T22:13:16.389Z,54.6
2019-03-29T22:14:22.913Z,54.9
2019-03-29T22:16:35.904Z,54.6
2019-03-29T22:17:42.427Z,55.1
2019-03-29T22:19:55.039Z,54.7
2019-03-29T22:21:01.865Z,55.3
2019-03-29T22:22:08.361Z,55.7
2019-03-29T22:25:27.916Z,54.8
2019-03-29T22:27:40.893Z,55.8
2019-03-29T22:32:06.879Z,55.6
2019-03-29T22:33:13.338Z,55.9
2019-03-29T22:35:26.035Z,56
2019-03-29T22:37:39.350Z,56.8
2019-03-29T22:39:52.369Z,55.9
2019-03-29T22:43:11.832Z,56.2
2019-03-29T22:44:18.032Z,56.3
2019-03-29T22:49:50.790Z,56.8
2019-03-29T22:52:03.780Z,57
2019-03-29T22:53:10.319Z,56.9
2019-03-29T22:55:23.318Z,56.6
2019-03-29T22:56:29.774Z,56.7
2019-03-29T22:58:42.794Z,56.9
2019-03-29T22:59:49.267Z,57.4
2019-03-29T23:06:28.288Z,57.7
2019-03-29T23:08:41.279Z,57.4
2019-03-29T23:10:54.221Z,57.3
2019-03-29T23:12:00.761Z,57.5
2019-03-29T23:14:13.744Z,57.8
2019-03-29T23:18:39.689Z,58.2
2019-03-29T23:21:59.221Z,58
2019-03-29T23:23:05.679Z,58.5
2019-03-29T23:24:12.210Z,58.6
2019-03-29T23:25:18.668Z,58.7
2019-03-29T23:26:25.195Z,58.4
2019-03-29T23:27:31.716Z,58
2019-03-29T23:30:51.208Z,58.6
2019-03-29T23:31:57.679Z,58.7
2019-03-29T23:33:04.149Z,58.6
2019-03-29T23:35:17.145Z,58.6
2019-03-29T23:36:23.626Z,58.7
2019-03-29T23:37:30.144Z,58.7
2019-03-29T23:38:36.627Z,58.8
2019-03-29T23:39:43.106Z,58.9
2019-03-29T23:41:56.126Z,58.2
2019-03-29T23:43:02.588Z,59
2019-03-29T23:45:15.567Z,59.2
2019-03-29T23:47:28.698Z,59
2019-03-29T23:49:41.585Z,59
2019-03-29T23:50:48.075Z,59.2
2019-03-29T23:53:01.058Z,58.7
2019-03-29T23:57:26.998Z,58.5
2019-03-29T23:58:33.552Z,58.4
2019-03-29T23:59:40.015Z,58.7
